createdAt,value
2018-06-30T00:01:48.820Z,2.33
2018-06-30T00:04:16.366Z,2.40
2018-06-30T00:06:43.832Z,2.40
2018-06-30T00:09:11.300Z,2.60
2018-06-30T00:11:38.816Z,2.40
2018-06-30T00:14:06.409Z,3.00
2018-06-30T00:16:34.730Z,2.53
2018-06-30T00:19:02.232Z,2.60
2018-06-30T00:21:29.735Z,2.40
2018-06-30T00:23:57.284Z,2.67
2018-06-30T00:26:24.791Z,2.30
2018-06-30T00:28:52.439Z,3.70
2018-06-30T00:31:20.085Z,2.70
2018-06-30T00:33:47.661Z,2.73
2018-06-30T00:36:15.192Z,2.60
2018-06-30T00:38:42.658Z,2.40
2018-06-30T00:41:10.119Z,2.40
2018-06-30T00:43:37.867Z,2.60
2018-06-30T00:46:05.567Z,2.33
2018-06-30T00:48:33.339Z,2.80
2018-06-30T00:51:01.076Z,3.27
2018-06-30T00:53:28.529Z,3.10
2018-06-30T00:55:56.031Z,3.17
2018-06-30T00:58:23.503Z,2.90
2018-06-30T01:00:50.961Z,2.90
2018-06-30T01:03:18.432Z,3.00
2018-06-30T01:05:45.961Z,2.80
2018-06-30T01:08:13.415Z,3.50
2018-06-30T01:10:40.837Z,2.43
2018-06-30T01:13:08.291Z,5.20
2018-06-30T01:15:35.775Z,3.43
2018-06-30T01:18:03.280Z,2.80
2018-06-30T01:20:30.787Z,3.20
2018-06-30T01:22:58.293Z,3.23
2018-06-30T01:25:25.725Z,4.10
2018-06-30T01:30:35.668Z,2.90
2018-06-30T01:33:03.232Z,2.77
2018-06-30T01:35:30.732Z,4.00
2018-06-30T01:37:58.229Z,3.30
2018-06-30T01:40:25.643Z,2.90
2018-06-30T01:42:53.051Z,2.93
2018-06-30T01:45:20.495Z,3.10
2018-06-30T01:47:48.008Z,3.40
2018-06-30T01:50:16.080Z,3.83
2018-06-30T01:52:44.248Z,3.47
2018-06-30T01:55:11.779Z,2.90
2018-06-30T01:57:39.777Z,3.17
2018-06-30T02:00:07.420Z,4.53
2018-06-30T02:02:34.951Z,3.70
2018-06-30T02:05:02.530Z,3.90
2018-06-30T02:07:30.185Z,3.90
2018-06-30T02:09:57.583Z,3.03
2018-06-30T02:12:25.092Z,3.50
2018-06-30T02:14:52.609Z,2.97
2018-06-30T02:17:20.136Z,3.10
2018-06-30T02:19:47.501Z,3.10
2018-06-30T02:22:14.883Z,3.80
2018-06-30T02:24:42.333Z,3.13
2018-06-30T02:27:10.063Z,4.00
2018-06-30T02:29:37.511Z,3.50
2018-06-30T02:32:04.993Z,2.77
2018-06-30T02:34:32.368Z,3.03
2018-06-30T02:36:59.865Z,2.90
2018-06-30T02:39:27.276Z,2.80
2018-06-30T02:41:54.760Z,4.20
2018-06-30T02:44:22.290Z,2.90
2018-06-30T02:46:49.769Z,4.00
2018-06-30T02:49:17.238Z,3.20
2018-06-30T02:51:44.772Z,3.37
2018-06-30T02:54:13.228Z,3.70
2018-06-30T02:56:40.713Z,3.40
2018-06-30T02:59:08.190Z,3.77
2018-06-30T03:01:35.661Z,3.60
2018-06-30T03:04:03.200Z,3.50
2018-06-30T03:06:30.645Z,3.80
2018-06-30T03:08:58.140Z,3.60
2018-06-30T03:11:25.572Z,3.87
2018-06-30T03:13:53.290Z,3.90
2018-06-30T03:16:20.848Z,3.23
2018-06-30T03:18:49.253Z,3.30
2018-06-30T03:21:16.819Z,3.53
2018-06-30T03:23:44.278Z,2.80
2018-06-30T03:26:12.120Z,2.67
2018-06-30T03:28:39.501Z,4.63
2018-06-30T03:31:07.035Z,4.33
2018-06-30T03:33:34.463Z,3.37
2018-06-30T03:36:01.942Z,3.77
2018-06-30T03:38:29.427Z,3.70
2018-06-30T03:40:56.887Z,2.97
2018-06-30T03:43:24.305Z,3.40
2018-06-30T03:45:52.647Z,3.37
2018-06-30T03:48:20.112Z,3.90
2018-06-30T03:50:47.623Z,3.43
2018-06-30T03:53:15.061Z,3.53
2018-06-30T03:55:42.605Z,3.37
2018-06-30T03:58:10.110Z,3.73
2018-06-30T04:00:37.703Z,3.70
2018-06-30T04:03:05.531Z,3.20
2018-06-30T04:05:33.000Z,3.50
2018-06-30T04:08:00.452Z,4.10
2018-06-30T04:10:27.964Z,3.50
2018-06-30T04:12:55.441Z,3.47
2018-06-30T04:15:23.429Z,3.33
2018-06-30T04:17:52.090Z,3.87
2018-06-30T04:20:20.104Z,3.73
2018-06-30T04:22:48.142Z,3.50
2018-06-30T04:25:15.677Z,3.73
2018-06-30T04:27:43.120Z,3.43
2018-06-30T04:30:10.592Z,3.60
2018-06-30T04:32:38.048Z,4.00
2018-06-30T04:35:06.144Z,3.60
2018-06-30T04:37:33.651Z,3.67
2018-06-30T04:40:01.716Z,3.27
2018-06-30T04:42:29.303Z,3.60
2018-06-30T04:44:56.744Z,3.53
2018-06-30T04:47:25.163Z,3.23
2018-06-30T04:49:53.341Z,3.63
2018-06-30T04:52:20.958Z,3.90
2018-06-30T04:54:48.496Z,3.57
2018-06-30T04:57:16.140Z,3.10
2018-06-30T04:59:43.733Z,4.17
2018-06-30T05:02:11.200Z,3.80
2018-06-30T05:04:38.888Z,3.80
2018-06-30T05:07:06.879Z,3.47
2018-06-30T05:09:34.437Z,3.10
2018-06-30T05:12:01.919Z,3.30
2018-06-30T05:14:29.528Z,3.30
2018-06-30T05:16:57.082Z,3.80
2018-06-30T05:19:24.515Z,3.63
2018-06-30T05:21:51.923Z,5.10
2018-06-30T05:24:19.306Z,5.67
2018-06-30T05:26:46.774Z,4.17
2018-06-30T05:29:14.823Z,4.00
2018-06-30T05:31:42.308Z,4.00
2018-06-30T05:34:09.760Z,4.13
2018-06-30T05:36:37.225Z,3.93
2018-06-30T05:39:07.220Z,4.30
2018-06-30T05:41:34.722Z,3.77
2018-06-30T05:44:02.537Z,3.17
2018-06-30T05:46:30.112Z,3.83
2018-06-30T05:48:57.681Z,3.70
2018-06-30T05:51:25.226Z,3.40
2018-06-30T05:53:52.768Z,3.90
2018-06-30T05:56:20.215Z,3.97
2018-06-30T05:58:47.757Z,3.70
2018-06-30T06:01:16.254Z,5.03
2018-06-30T06:03:43.736Z,4.67
2018-06-30T06:06:11.233Z,4.77
2018-06-30T06:08:38.683Z,4.30
2018-06-30T06:11:06.221Z,3.90
2018-06-30T06:13:33.812Z,4.17
2018-06-30T06:16:01.703Z,4.27
2018-06-30T06:18:29.274Z,3.40
2018-06-30T06:20:56.761Z,4.50
2018-06-30T06:23:25.293Z,4.60
2018-06-30T06:25:52.817Z,4.10
2018-06-30T06:28:20.263Z,4.40
2018-06-30T06:30:48.470Z,4.50
2018-06-30T06:33:16.187Z,3.90
2018-06-30T06:35:43.793Z,4.33
2018-06-30T06:38:11.285Z,4.97
2018-06-30T06:40:38.892Z,4.23
2018-06-30T06:43:06.531Z,5.10
2018-06-30T06:45:34.140Z,3.77
2018-06-30T06:48:02.551Z,5.43
2018-06-30T06:50:30.097Z,4.20
2018-06-30T06:52:57.539Z,5.20
2018-06-30T06:55:25.088Z,4.93
2018-06-30T06:57:52.605Z,5.63
2018-06-30T07:00:20.921Z,4.33
2018-06-30T07:02:48.373Z,4.53
2018-06-30T07:05:16.015Z,4.10
2018-06-30T07:07:43.444Z,4.37
2018-06-30T07:10:10.975Z,4.73
2018-06-30T07:12:38.505Z,4.00
2018-06-30T07:15:06.312Z,3.70
2018-06-30T07:17:33.878Z,4.23
2018-06-30T07:20:01.358Z,4.10
2018-06-30T07:22:29.195Z,4.20
2018-06-30T07:24:57.024Z,4.30
2018-06-30T07:27:24.528Z,4.40
2018-06-30T07:29:51.979Z,4.50
2018-06-30T07:32:19.506Z,4.20
2018-06-30T07:34:47.024Z,4.63
2018-06-30T07:37:14.703Z,4.27
2018-06-30T07:39:42.865Z,3.60
2018-06-30T07:42:11.001Z,3.90
2018-06-30T07:44:38.464Z,4.97
2018-06-30T07:47:06.257Z,4.67
2018-06-30T07:49:33.691Z,4.37
2018-06-30T07:52:01.312Z,4.20
2018-06-30T07:54:28.913Z,4.60
2018-06-30T07:56:57.344Z,4.20
2018-06-30T07:59:25.061Z,4.83
2018-06-30T08:01:52.660Z,5.00
2018-06-30T08:04:20.289Z,4.40
2018-06-30T08:06:47.774Z,4.43
2018-06-30T08:09:15.820Z,3.93
2018-06-30T08:11:47.264Z,5.67
2018-06-30T08:14:14.842Z,4.57
2018-06-30T08:16:43.190Z,4.57
2018-06-30T08:19:10.744Z,5.47
2018-06-30T08:21:40.618Z,4.67
2018-06-30T08:24:08.317Z,5.33
2018-06-30T08:26:36.344Z,4.10
2018-06-30T08:29:04.628Z,4.53
2018-06-30T08:31:33.429Z,4.20
2018-06-30T08:34:02.337Z,4.27
2018-06-30T08:36:29.905Z,4.13
2018-06-30T08:38:57.380Z,4.47
2018-06-30T08:41:25.379Z,4.77
2018-06-30T08:43:52.829Z,4.03
2018-06-30T08:46:21.678Z,5.40
2018-06-30T08:48:49.548Z,6.00
2018-06-30T08:51:16.956Z,4.23
2018-06-30T08:53:44.452Z,3.90
2018-06-30T08:56:12.600Z,4.47
2018-06-30T08:58:40.440Z,4.47
2018-06-30T09:01:08.207Z,4.20
2018-06-30T09:03:40.651Z,3.60
2018-06-30T09:06:17.186Z,6.43
2018-06-30T09:08:44.771Z,3.70
2018-06-30T09:11:12.489Z,3.57
2018-06-30T09:13:40.527Z,4.53
2018-06-30T09:16:08.191Z,4.30
2018-06-30T09:18:36.968Z,4.57
2018-06-30T09:21:05.414Z,4.30
2018-06-30T09:23:37.647Z,3.30
2018-06-30T09:26:05.865Z,3.37
2018-06-30T09:28:33.566Z,4.37
2018-06-30T09:31:01.281Z,3.43
2018-06-30T09:33:28.837Z,3.90
2018-06-30T09:35:56.533Z,3.70
2018-06-30T09:38:25.314Z,4.00
2018-06-30T09:40:55.542Z,3.87
2018-06-30T09:43:23.372Z,5.40
2018-06-30T09:45:51.594Z,3.43
2018-06-30T09:48:19.319Z,5.83
2018-06-30T09:50:46.977Z,7.67
2018-06-30T09:53:14.542Z,3.17
2018-06-30T09:55:43.472Z,4.13
2018-06-30T09:58:11.705Z,4.23
2018-06-30T10:00:45.258Z,4.30
2018-06-30T10:03:13.677Z,4.63
2018-06-30T10:05:42.153Z,4.07
2018-06-30T10:08:09.852Z,4.77
2018-06-30T10:10:37.333Z,6.23
2018-06-30T10:13:05.400Z,4.83
2018-06-30T10:15:33.069Z,5.00
2018-06-30T10:18:01.689Z,4.63
2018-06-30T10:20:29.353Z,4.57
2018-06-30T10:22:57.710Z,5.90
2018-06-30T10:25:25.420Z,3.90
2018-06-30T10:27:52.948Z,3.60
2018-06-30T10:30:20.744Z,3.70
2018-06-30T10:32:48.200Z,3.80
2018-06-30T10:35:15.705Z,4.13
2018-06-30T10:37:43.533Z,3.93
2018-06-30T10:40:13.413Z,4.00
2018-06-30T10:42:41.086Z,3.60
2018-06-30T10:45:08.807Z,3.80
2018-06-30T10:47:36.347Z,4.90
2018-06-30T10:50:04.084Z,3.70
2018-06-30T10:52:31.977Z,4.10
2018-06-30T10:54:59.555Z,3.97
2018-06-30T10:57:27.721Z,4.40
2018-06-30T10:59:55.197Z,4.13
2018-06-30T11:02:22.799Z,4.40
2018-06-30T11:04:50.739Z,7.70
2018-06-30T11:07:18.215Z,5.00
2018-06-30T11:09:46.910Z,4.30
2018-06-30T11:12:14.500Z,4.40
2018-06-30T11:14:41.898Z,3.90
2018-06-30T11:17:10.745Z,4.50
2018-06-30T11:19:38.251Z,4.13
2018-06-30T11:22:05.950Z,4.07
2018-06-30T11:24:33.533Z,3.93
2018-06-30T11:27:01.272Z,3.97
2018-06-30T11:29:28.779Z,4.37
2018-06-30T11:31:57.440Z,3.97
2018-06-30T11:34:25.212Z,4.10
2018-06-30T11:36:53.007Z,3.90
2018-06-30T11:39:20.539Z,3.87
2018-06-30T11:41:48.125Z,4.10
2018-06-30T11:44:15.652Z,3.93
2018-06-30T11:46:43.122Z,4.07
2018-06-30T11:49:10.635Z,4.43
2018-06-30T11:51:38.813Z,3.50
2018-06-30T11:54:06.831Z,4.80
2018-06-30T11:56:34.318Z,3.80
2018-06-30T11:59:02.056Z,3.83
2018-06-30T12:01:29.659Z,3.67
2018-06-30T12:03:57.130Z,3.70
2018-06-30T12:06:24.922Z,3.77
2018-06-30T12:08:52.545Z,3.50
2018-06-30T12:11:20.599Z,3.60
2018-06-30T12:13:48.201Z,4.30
2018-06-30T12:16:15.647Z,5.40
2018-06-30T12:18:43.021Z,5.07
2018-06-30T12:21:10.673Z,5.13
2018-06-30T12:23:39.987Z,4.60
2018-06-30T12:26:07.521Z,4.20
2018-06-30T12:28:35.641Z,4.10
2018-06-30T12:31:03.229Z,3.80
2018-06-30T12:33:30.706Z,3.50
2018-06-30T12:35:58.201Z,4.17
2018-06-30T12:38:25.854Z,3.77
2018-06-30T12:40:53.675Z,3.90
2018-06-30T12:43:21.135Z,4.50
2018-06-30T12:45:48.631Z,4.13
2018-06-30T12:48:16.183Z,4.00
2018-06-30T12:50:43.899Z,4.67
2018-06-30T12:53:11.392Z,4.93
2018-06-30T12:55:39.249Z,4.77
2018-06-30T12:58:06.989Z,4.33
2018-06-30T13:00:34.441Z,4.73
2018-06-30T13:03:01.993Z,4.13
2018-06-30T13:05:29.988Z,4.37
2018-06-30T13:07:57.580Z,4.33
2018-06-30T13:10:25.193Z,4.10
2018-06-30T13:12:52.917Z,4.70
2018-06-30T13:15:20.534Z,4.20
2018-06-30T13:17:48.063Z,4.17
2018-06-30T13:20:15.551Z,3.90
2018-06-30T13:22:43.130Z,4.60
2018-06-30T13:25:10.807Z,4.27
2018-06-30T13:27:38.344Z,4.70
2018-06-30T13:30:06.456Z,3.80
2018-06-30T13:32:33.922Z,4.10
2018-06-30T13:35:01.441Z,4.90
2018-06-30T13:37:29.136Z,4.80
2018-06-30T13:39:56.787Z,4.90
2018-06-30T13:42:24.913Z,4.40
2018-06-30T13:44:52.581Z,4.90
2018-06-30T13:47:20.159Z,4.43
2018-06-30T13:49:47.627Z,4.17
2018-06-30T13:52:15.921Z,4.87
2018-06-30T13:54:44.115Z,3.73
2018-06-30T13:57:11.692Z,4.13
2018-06-30T13:59:39.202Z,4.40
2018-06-30T14:02:07.010Z,5.37
2018-06-30T14:04:35.311Z,4.60
2018-06-30T14:07:02.830Z,4.40
2018-06-30T14:09:30.904Z,4.27
2018-06-30T14:11:58.391Z,4.40
2018-06-30T14:14:25.829Z,5.00
2018-06-30T14:16:53.489Z,4.57
2018-06-30T14:19:21.031Z,4.17
2018-06-30T14:21:48.630Z,4.20
2018-06-30T14:24:16.369Z,4.57
2018-06-30T14:26:43.867Z,4.43
2018-06-30T14:29:11.460Z,5.23
2018-06-30T14:31:39.044Z,5.10
2018-06-30T14:34:07.220Z,4.17
2018-06-30T14:36:35.041Z,5.10
2018-06-30T14:39:02.632Z,4.60
2018-06-30T14:41:30.286Z,4.50
2018-06-30T14:43:57.780Z,4.37
2018-06-30T14:46:25.331Z,4.67
2018-06-30T14:48:52.852Z,4.70
2018-06-30T14:51:21.089Z,3.93
2018-06-30T14:53:48.639Z,4.30
2018-06-30T14:56:17.379Z,4.97
2018-06-30T14:58:44.915Z,4.43
2018-06-30T15:01:14.044Z,4.57
2018-06-30T15:03:43.054Z,4.63
2018-06-30T15:06:10.517Z,4.47
2018-06-30T15:08:38.031Z,4.27
2018-06-30T15:11:05.610Z,4.30
2018-06-30T15:13:33.260Z,4.80
2018-06-30T15:16:00.751Z,3.53
2018-06-30T15:18:28.858Z,4.00
2018-06-30T15:20:56.450Z,4.53
2018-06-30T15:23:23.933Z,4.13
2018-06-30T15:25:51.464Z,3.93
2018-06-30T15:28:19.120Z,5.10
2018-06-30T15:30:46.680Z,4.00
2018-06-30T15:33:14.186Z,4.30
2018-06-30T15:35:41.721Z,4.23
2018-06-30T15:38:09.353Z,5.03
2018-06-30T15:40:37.047Z,5.20
2018-06-30T15:43:04.560Z,5.13
2018-06-30T15:45:32.004Z,4.40
2018-06-30T15:47:59.538Z,5.07
2018-06-30T15:50:26.924Z,4.17
2018-06-30T15:52:54.416Z,3.73
2018-06-30T15:55:21.968Z,3.43
2018-06-30T15:57:49.450Z,3.13
2018-06-30T16:00:17.525Z,4.30
2018-06-30T16:02:45.051Z,4.00
2018-06-30T16:05:12.651Z,3.93
2018-06-30T16:07:40.297Z,3.83
2018-06-30T16:10:08.427Z,3.97
2018-06-30T16:12:35.939Z,3.30
2018-06-30T16:15:03.663Z,3.53
2018-06-30T16:17:31.398Z,3.90
2018-06-30T16:19:58.923Z,3.30
2018-06-30T16:22:26.501Z,3.40
2018-06-30T16:24:54.037Z,3.70
2018-06-30T16:27:21.598Z,3.20
2018-06-30T16:29:49.057Z,3.17
2018-06-30T16:32:16.530Z,2.93
2018-06-30T16:34:44.028Z,2.77
2018-06-30T16:37:11.499Z,2.87
2018-06-30T16:39:39.053Z,4.53
2018-06-30T16:42:06.661Z,3.87
2018-06-30T16:44:34.183Z,2.97
2018-06-30T16:47:01.744Z,4.57
2018-06-30T16:49:29.290Z,5.03
2018-06-30T16:51:56.759Z,5.57
2018-06-30T16:54:24.242Z,4.50
2018-06-30T16:58:16.300Z,4.40
2018-06-30T17:00:44.147Z,10.23
2018-06-30T17:03:11.679Z,7.30
2018-06-30T17:05:39.240Z,4.07
2018-06-30T17:08:06.775Z,4.63
2018-06-30T17:10:34.191Z,4.63
2018-06-30T17:13:01.778Z,3.57
2018-06-30T17:15:29.291Z,3.73
2018-06-30T17:17:56.766Z,3.50
2018-06-30T17:20:24.306Z,3.00
2018-06-30T17:22:51.825Z,3.07
2018-06-30T17:25:19.405Z,2.50
2018-06-30T17:27:46.889Z,2.50
2018-06-30T17:30:14.404Z,3.40
2018-06-30T17:32:42.006Z,2.60
2018-06-30T17:35:09.575Z,1.90
2018-06-30T17:37:37.153Z,2.00
2018-06-30T17:40:04.808Z,2.27
2018-06-30T17:42:32.340Z,2.07
2018-06-30T17:45:00.590Z,2.53
2018-06-30T17:47:28.135Z,2.13
2018-06-30T17:49:55.601Z,1.90
2018-06-30T17:52:23.153Z,2.23
2018-06-30T17:54:51.487Z,2.10
2018-06-30T17:57:18.964Z,2.20
2018-06-30T17:59:46.466Z,1.80
2018-06-30T18:02:14.053Z,1.80
2018-06-30T18:04:41.612Z,2.30
2018-06-30T18:07:09.109Z,1.50
2018-06-30T18:09:36.629Z,1.37
2018-06-30T18:12:04.154Z,1.70
2018-06-30T18:14:31.680Z,1.50
2018-06-30T18:16:59.245Z,1.70
2018-06-30T18:19:26.739Z,1.57
2018-06-30T18:21:54.230Z,1.37
2018-06-30T18:24:21.729Z,1.33
2018-06-30T18:26:49.248Z,1.40
2018-06-30T18:29:16.820Z,1.67
2018-06-30T18:31:44.387Z,1.20
2018-06-30T18:34:11.942Z,1.60
2018-06-30T18:36:40.433Z,1.43
2018-06-30T18:39:09.681Z,1.03
2018-06-30T18:41:37.261Z,1.40
2018-06-30T18:44:05.149Z,0.90
2018-06-30T18:46:32.764Z,1.00
2018-06-30T18:49:00.229Z,1.17
2018-06-30T18:51:27.850Z,1.43
2018-06-30T18:53:55.382Z,1.20
2018-06-30T18:56:22.832Z,2.77
2018-06-30T18:58:50.458Z,1.73
2018-06-30T19:01:17.989Z,1.17
2018-06-30T19:03:45.461Z,2.13
2018-06-30T19:06:13.077Z,1.53
2018-06-30T19:08:40.717Z,1.77
2018-06-30T19:11:08.245Z,1.40
2018-06-30T19:13:35.657Z,1.60
2018-06-30T19:16:03.230Z,1.40
2018-06-30T19:18:30.820Z,1.50
2018-06-30T19:20:58.301Z,0.80
2018-06-30T19:23:25.911Z,1.00
2018-06-30T19:25:53.476Z,0.90
2018-06-30T19:28:21.011Z,1.30
2018-06-30T19:30:48.528Z,0.80
2018-06-30T19:33:16.046Z,0.97
2018-06-30T19:35:43.576Z,0.90
2018-06-30T19:38:11.067Z,0.80
2018-06-30T19:40:38.685Z,0.70
2018-06-30T19:43:06.304Z,0.80
2018-06-30T19:45:33.768Z,0.77
2018-06-30T19:48:01.251Z,0.83
2018-06-30T19:50:28.786Z,1.00
2018-06-30T19:52:56.405Z,0.80
2018-06-30T19:55:23.907Z,1.07
2018-06-30T19:57:51.468Z,0.90
2018-06-30T20:00:18.951Z,0.77
2018-06-30T20:02:46.519Z,0.90
2018-06-30T20:05:14.112Z,1.20
2018-06-30T20:07:47.234Z,1.20
2018-06-30T20:10:14.874Z,1.33
2018-06-30T20:12:42.324Z,1.60
2018-06-30T20:15:09.922Z,0.90
2018-06-30T20:17:37.472Z,1.30
2018-06-30T20:20:05.132Z,1.00
2018-06-30T20:22:32.688Z,1.20
2018-06-30T20:25:00.153Z,1.13
2018-06-30T20:27:27.675Z,1.17
2018-06-30T20:29:55.251Z,1.20
2018-06-30T20:32:22.890Z,1.30
2018-06-30T20:34:50.404Z,1.20
2018-06-30T20:37:17.952Z,1.20
2018-06-30T20:39:45.520Z,1.80
2018-06-30T20:42:13.088Z,1.60
2018-06-30T20:44:40.519Z,1.70
2018-06-30T20:47:08.105Z,1.40
2018-06-30T20:49:35.707Z,1.10
2018-06-30T20:52:03.399Z,0.90
2018-06-30T20:54:31.023Z,0.93
2018-06-30T20:56:58.528Z,1.20
2018-06-30T20:59:26.100Z,2.20
2018-06-30T21:01:53.671Z,1.10
2018-06-30T21:04:21.196Z,1.00
2018-06-30T21:06:48.779Z,0.83
2018-06-30T21:09:16.273Z,0.83
2018-06-30T21:11:43.823Z,1.30
2018-06-30T21:14:11.392Z,0.70
2018-06-30T21:16:38.929Z,0.80
2018-06-30T21:19:06.458Z,1.40
2018-06-30T21:21:34.030Z,0.80
2018-06-30T21:24:01.589Z,0.80
2018-06-30T21:26:29.178Z,1.10
2018-06-30T21:28:56.779Z,1.07
2018-06-30T21:31:24.368Z,0.90
2018-06-30T21:33:51.848Z,0.87
2018-06-30T21:36:19.428Z,0.77
2018-06-30T21:38:46.942Z,1.10
2018-06-30T21:41:14.478Z,0.63
2018-06-30T21:43:41.943Z,0.83
2018-06-30T21:46:09.483Z,0.80
2018-06-30T21:48:37.023Z,0.90
2018-06-30T21:51:05.181Z,0.80
2018-06-30T21:53:32.769Z,1.20
2018-06-30T21:56:00.260Z,0.83
2018-06-30T21:58:27.750Z,0.80
2018-06-30T22:01:00.920Z,0.60
2018-06-30T22:03:28.565Z,0.60
2018-06-30T22:05:57.668Z,0.80
2018-06-30T22:08:25.227Z,0.80
2018-06-30T22:10:52.907Z,0.90
2018-06-30T22:13:20.421Z,0.63
2018-06-30T22:15:48.592Z,2.20
2018-06-30T22:18:16.099Z,1.10
2018-06-30T22:20:43.648Z,1.00
2018-06-30T22:23:11.728Z,0.80
2018-06-30T22:25:39.168Z,1.00
2018-06-30T22:28:07.319Z,0.87
2018-06-30T22:30:34.934Z,0.70
2018-06-30T22:33:02.536Z,2.37
2018-06-30T22:35:29.995Z,1.60
2018-06-30T22:37:57.613Z,1.60
2018-06-30T22:40:25.171Z,0.97
2018-06-30T22:42:52.685Z,1.03
2018-06-30T22:45:20.900Z,1.13
2018-06-30T22:47:48.639Z,2.50
2018-06-30T22:50:17.330Z,0.90
2018-06-30T22:52:45.096Z,1.30
2018-06-30T22:55:15.741Z,1.60
2018-06-30T22:57:43.156Z,3.07
2018-06-30T23:00:12.692Z,1.00
2018-06-30T23:02:41.373Z,1.47
2018-06-30T23:05:09.556Z,0.80
2018-06-30T23:07:37.093Z,1.00
2018-06-30T23:10:04.577Z,0.90
2018-06-30T23:12:33.740Z,1.60
2018-06-30T23:15:01.521Z,1.13
2018-06-30T23:17:29.048Z,3.43
2018-06-30T23:19:57.061Z,2.03
2018-06-30T23:23:14.976Z,1.00
2018-06-30T23:25:42.482Z,1.00
2018-06-30T23:28:10.102Z,0.80
2018-06-30T23:30:37.593Z,0.63
2018-06-30T23:33:05.165Z,0.90
2018-06-30T23:35:33.223Z,0.97
2018-06-30T23:38:01.505Z,1.10
2018-06-30T23:40:29.024Z,0.80
2018-06-30T23:42:56.541Z,0.80
2018-06-30T23:45:24.269Z,0.80
2018-06-30T23:47:52.536Z,0.70
2018-06-30T23:50:20.319Z,1.20
2018-06-30T23:52:47.886Z,0.80
2018-06-30T23:55:15.468Z,1.00
2018-06-30T23:57:43.000Z,1.10
